CST,Max TemperatureF,Mean TemperatureF,Min TemperatureF,Max Dew PointF,MeanDew PointF,Min DewpointF,Max Humidity, Mean Humidity, Min Humidity, Max Sea Level PressureIn, Mean Sea Level PressureIn, Min Sea Level PressureIn, Max VisibilityMiles, Mean VisibilityMiles, Min VisibilityMiles, Max Wind SpeedMPH, Mean Wind SpeedMPH, Max Gust SpeedMPH,PrecipitationIn, CloudCover, Events, WindDirDegrees
2013-11-1,70,56,41,29,26,23,57,38,19,30.18,29.93,29.75,10,10,10,26,13,35,0.00,0,,350
2013-11-2,66,49,31,30,27,24,75,49,22,30.35,30.22,30.07,10,10,10,17,9,24,0.00,0,,225
2013-11-3,66,54,42,42,33,28,80,53,26,30.05,29.91,29.78,10,10,8,30,18,37,0.00,4,,178
2013-11-4,72,58,43,52,45,40,86,63,39,29.90,29.85,29.79,10,10,7,20,9,23,0.01,3,Rain,166
2013-11-5,76,60,44,54,48,35,86,61,35,30.07,29.87,29.75,10,10,10,26,15,33,0.00,6,,208
2013-11-6,61,48,34,31,21,15,70,44,17,30.34,30.25,30.09,10,10,10,21,8,28,0.00,1,,349
2013-11-7,64,48,31,24,21,18,61,40,19,30.47,30.38,30.29,10,10,10,20,9,23,0.00,4,,185
2013-11-8,64,50,35,42,32,21,83,54,25,30.26,30.11,29.99,10,10,10,26,15,32,0.00,5,,205
2013-11-9,72,57,42,43,39,32,100,62,24,30.13,30.01,29.94,10,7,1,16,9,22,0.00,4,,273
2013-11-10,63,52,40,48,43,38,100,78,56,30.32,30.22,30.11,10,7,0,12,7,15,0.00,4,Fog,60
2013-11-11,72,59,45,52,48,42,100,68,35,30.37,30.21,30.09,10,5,0,21,9,25,0.00,4,Fog,207
2013-11-12,53,43,32,43,20,11,92,58,23,30.72,30.63,30.37,10,9,3,29,14,37,T,5,Rain,42
2013-11-13,58,43,28,22,15,9,58,41,24,30.64,30.43,30.19,10,10,10,17,9,22,0.00,1,,202
2013-11-14,68,54,39,39,29,10,58,43,27,30.16,29.95,29.79,10,10,10,20,12,25,0.00,5,,231
2013-11-15,75,53,31,48,35,25,75,51,27,29.92,29.79,29.66,10,10,10,29,12,36,T,4,Rain,233
2013-11-16,78,68,57,48,41,31,72,46,20,29.69,29.60,29.48,10,8,1,45,22,55,T,3,,225
2013-11-17,75,61,46,40,31,25,66,41,16,30.01,29.80,29.60,10,10,10,32,13,40,0.00,1,,270
2013-11-18,62,51,40,30,20,13,57,37,17,30.19,30.12,30.03,10,10,10,18,8,25,0.00,6,,107
2013-11-19,71,54,36,53,38,20,78,56,34,30.10,29.93,29.78,10,10,10,23,11,30,0.00,4,,190
2013-11-20,71,60,49,54,48,34,93,65,37,29.90,29.78,29.70,10,9,6,23,12,29,0.00,6,,209
2013-11-21,74,52,29,54,41,18,93,59,25,30.30,29.99,29.80,10,8,2,31,13,38,0.00,6,,294
2013-11-22,29,27,24,22,19,14,81,69,57,30.58,30.48,30.31,10,9,4,30,20,38,0.05,8,Rain-Snow,12
2013-11-23,31,28,25,28,25,21,92,81,69,30.63,30.56,30.49,10,8,2,22,15,26,0.17,8,Rain-Snow,25
2013-11-24,29,27,25,27,25,23,92,89,85,30.61,30.42,30.21,10,5,0,16,9,22,0.31,8,Fog-Rain-Snow,95
2013-11-25,40,35,29,30,28,25,92,81,69,30.24,30.14,30.04,10,9,4,23,14,29,T,8,Snow,321
2013-11-26,47,37,26,28,25,22,92,67,42,30.43,30.35,30.22,10,10,7,22,11,28,T,1,,344
2013-11-27,52,38,23,32,27,21,96,72,48,30.44,30.33,30.22,10,10,10,16,7,22,0.00,3,,227
2013-11-28,57,45,33,32,29,27,82,57,32,30.32,30.24,30.18,10,10,10,15,8,20,0.00,2,,199
2013-11-29,60,45,30,36,33,28,92,64,36,30.35,30.27,30.19,10,10,10,17,8,22,0.00,5,,212
2013-11-30,69,51,33,41,36,31,92,61,30,30.22,30.15,30.06,10,10,10,14,8,,0.00,4,,246